createdAt,value
2022-11-14T00:01:55.746Z,24.33
2022-11-14T00:04:47.503Z,24.58
2022-11-14T00:07:34.628Z,23.08
2022-11-14T00:10:19.841Z,25.05
2022-11-14T00:13:05.270Z,20.35
2022-11-14T00:15:54.139Z,19.05
2022-11-14T00:18:39.089Z,20.70
2022-11-14T00:21:24.293Z,21.80
2022-11-14T00:24:10.190Z,25.25
2022-11-14T00:26:55.263Z,24.08
2022-11-14T00:29:40.474Z,23.80
2022-11-14T00:32:25.420Z,27.38
2022-11-14T00:35:10.624Z,22.65
2022-11-14T00:37:55.643Z,23.60
2022-11-14T00:40:40.805Z,26.40
2022-11-14T00:43:26.031Z,27.40
2022-11-14T00:46:11.478Z,22.83
2022-11-14T00:48:56.807Z,22.88
2022-11-14T00:51:42.006Z,23.20
2022-11-14T00:54:27.238Z,21.15
2022-11-14T00:57:12.363Z,19.65
2022-11-14T00:59:57.214Z,20.13
2022-11-14T01:02:42.224Z,19.63
2022-11-14T01:05:27.299Z,18.67
2022-11-14T01:08:14.399Z,19.67
2022-11-14T01:11:00.409Z,23.52
2022-11-14T01:13:45.351Z,25.90
2022-11-14T01:16:30.310Z,23.38
2022-11-14T01:19:15.347Z,20.77
2022-11-14T01:22:04.763Z,20.30
2022-11-14T01:24:51.171Z,21.85
2022-11-14T01:27:36.500Z,23.70
2022-11-14T01:30:21.462Z,23.10
2022-11-14T01:33:06.947Z,22.48
2022-11-14T01:35:52.016Z,22.65
2022-11-14T01:38:37.509Z,28.65
2022-11-14T01:41:22.555Z,23.30
2022-11-14T01:44:18.148Z,22.77
2022-11-14T01:47:03.428Z,23.73
2022-11-14T01:49:51.004Z,24.02
2022-11-14T01:52:38.476Z,19.77
2022-11-14T01:55:23.462Z,17.23
2022-11-14T01:58:08.302Z,16.77
2022-11-14T02:00:53.636Z,15.18
2022-11-14T02:03:40.632Z,15.90
2022-11-14T02:06:27.942Z,16.48
2022-11-14T02:09:13.346Z,16.98
2022-11-14T02:11:59.837Z,14.60
2022-11-14T02:14:52.383Z,18.08
2022-11-14T02:17:37.211Z,19.95
2022-11-14T02:20:24.701Z,21.25
2022-11-14T02:23:11.539Z,19.17
2022-11-14T02:25:56.530Z,17.75
2022-11-14T02:28:41.629Z,17.55
2022-11-14T02:31:26.654Z,18.92
2022-11-14T02:34:11.624Z,17.40
2022-11-14T02:36:56.908Z,16.33
2022-11-14T02:39:42.015Z,15.93
2022-11-14T02:42:26.910Z,17.70
2022-11-14T02:45:12.574Z,14.73
2022-11-14T02:47:57.725Z,16.48
2022-11-14T02:50:43.513Z,15.57
2022-11-14T02:53:28.830Z,15.23
2022-11-14T02:56:14.030Z,17.35
2022-11-14T02:58:59.238Z,15.75
2022-11-14T03:01:44.517Z,16.85
2022-11-14T03:04:29.660Z,15.93
2022-11-14T03:07:15.008Z,14.65
2022-11-14T03:10:00.329Z,15.23
2022-11-14T03:12:45.307Z,14.27
2022-11-14T03:15:30.643Z,15.32
2022-11-14T03:18:15.468Z,15.70
2022-11-14T03:21:16.274Z,14.23
2022-11-14T03:24:01.097Z,14.10
2022-11-14T03:26:46.098Z,19.13
2022-11-14T03:29:31.218Z,17.70
2022-11-14T03:32:16.411Z,15.57
2022-11-14T03:35:01.471Z,16.75
2022-11-14T03:37:46.672Z,17.30
2022-11-14T03:40:31.824Z,16.50
2022-11-14T03:43:17.867Z,15.23
2022-11-14T03:46:03.458Z,15.15
2022-11-14T03:48:48.666Z,14.43
2022-11-14T03:51:33.972Z,12.82
2022-11-14T03:54:18.970Z,12.77
2022-11-14T03:57:04.646Z,13.68
2022-11-14T03:59:49.550Z,13.50
2022-11-14T04:02:34.450Z,13.23
2022-11-14T04:05:19.687Z,13.48
2022-11-14T04:08:05.825Z,13.05
2022-11-14T04:10:50.761Z,13.18
2022-11-14T04:13:35.882Z,13.93
2022-11-14T04:16:20.729Z,13.60
2022-11-14T04:19:06.065Z,13.95
2022-11-14T04:21:51.408Z,13.15
2022-11-14T04:24:36.263Z,13.60
2022-11-14T04:27:21.313Z,13.68
2022-11-14T04:30:07.132Z,12.98
2022-11-14T04:32:52.474Z,12.57
2022-11-14T04:35:37.523Z,13.82
2022-11-14T04:38:22.516Z,14.23
2022-11-14T04:41:07.439Z,13.80
2022-11-14T04:43:52.606Z,12.32
2022-11-14T04:46:37.500Z,12.80
2022-11-14T04:49:23.070Z,12.52
2022-11-14T04:52:08.025Z,14.25
2022-11-14T04:54:53.246Z,12.82
2022-11-14T04:57:38.242Z,13.75
2022-11-14T05:00:23.774Z,11.98
2022-11-14T05:03:08.754Z,13.40
2022-11-14T05:05:53.670Z,12.35
2022-11-14T05:08:38.649Z,14.05
2022-11-14T05:11:28.050Z,13.85
2022-11-14T05:14:14.192Z,13.32
2022-11-14T05:16:59.354Z,14.25
2022-11-14T05:19:44.317Z,14.45
2022-11-14T05:22:29.527Z,14.65
2022-11-14T05:25:14.657Z,14.18
2022-11-14T05:27:59.488Z,13.25
2022-11-14T05:30:44.438Z,14.48
2022-11-14T05:33:30.001Z,16.17
2022-11-14T05:36:16.356Z,15.82
2022-11-14T05:39:01.722Z,15.95
2022-11-14T05:41:46.467Z,18.48
2022-11-14T05:44:31.554Z,19.40
2022-11-14T05:47:16.586Z,18.95
2022-11-14T05:50:01.502Z,20.30
2022-11-14T05:52:46.533Z,17.45
2022-11-14T05:55:31.735Z,19.05
2022-11-14T05:58:16.775Z,17.85
2022-11-14T06:01:13.323Z,19.55
2022-11-14T06:03:58.152Z,19.00
2022-11-14T06:06:43.422Z,18.98
2022-11-14T06:09:28.609Z,19.35
2022-11-14T06:12:13.631Z,20.33
2022-11-14T06:14:58.846Z,19.58
2022-11-14T06:17:44.260Z,20.85
2022-11-14T06:20:29.497Z,19.42
2022-11-14T06:23:14.612Z,17.30
2022-11-14T06:26:01.391Z,18.13
2022-11-14T06:28:47.268Z,20.40
2022-11-14T06:31:32.142Z,19.05
2022-11-14T06:34:17.101Z,19.70
2022-11-14T06:37:02.485Z,18.67
2022-11-14T06:39:47.787Z,16.77
2022-11-14T06:42:32.999Z,17.70
2022-11-14T06:45:18.185Z,16.75
2022-11-14T06:48:03.301Z,17.80
2022-11-14T06:50:53.247Z,17.38
2022-11-14T06:53:38.887Z,16.83
2022-11-14T06:56:23.956Z,17.58
2022-11-14T06:59:08.901Z,17.85
2022-11-14T07:01:54.340Z,17.48
2022-11-14T07:04:39.755Z,18.95
2022-11-14T07:07:24.840Z,18.67
2022-11-14T07:10:10.315Z,17.50
2022-11-14T07:12:55.522Z,18.42
2022-11-14T07:15:40.461Z,18.02
2022-11-14T07:18:25.574Z,17.85
2022-11-14T07:21:13.170Z,17.92
2022-11-14T07:23:58.302Z,18.05
2022-11-14T07:26:43.403Z,17.58
2022-11-14T07:29:28.541Z,19.20
2022-11-14T07:32:13.933Z,17.08
2022-11-14T07:35:02.102Z,18.33
2022-11-14T07:37:47.947Z,17.08
2022-11-14T07:40:32.666Z,17.83
2022-11-14T07:43:17.825Z,17.50
2022-11-14T07:46:14.091Z,18.80
2022-11-14T07:48:59.235Z,18.67
2022-11-14T07:51:44.245Z,18.42
2022-11-14T07:54:29.257Z,18.95
2022-11-14T07:57:14.297Z,19.02
2022-11-14T07:59:59.143Z,17.50
2022-11-14T08:02:45.978Z,18.27
2022-11-14T08:05:31.159Z,18.92
2022-11-14T08:08:16.403Z,17.48
2022-11-14T08:11:01.800Z,19.23
2022-11-14T08:13:47.053Z,16.73
2022-11-14T08:16:31.870Z,17.77
2022-11-14T08:19:17.715Z,17.05
2022-11-14T08:22:03.232Z,16.40
2022-11-14T08:24:48.183Z,18.35
2022-11-14T08:27:33.116Z,16.58
2022-11-14T08:30:19.685Z,17.30
2022-11-14T08:33:06.127Z,17.75
2022-11-14T08:35:51.589Z,17.48
2022-11-14T08:38:37.352Z,16.90
2022-11-14T08:41:22.577Z,18.33
2022-11-14T08:44:07.791Z,18.05
2022-11-14T08:46:53.047Z,17.73
2022-11-14T08:49:38.291Z,18.38
2022-11-14T08:52:23.104Z,18.25
2022-11-14T08:55:08.382Z,19.30
2022-11-14T08:57:54.625Z,18.92
2022-11-14T09:00:39.986Z,18.10
2022-11-14T09:03:25.272Z,18.63
2022-11-14T09:06:10.638Z,18.40
2022-11-14T09:08:56.032Z,18.88
2022-11-14T09:11:41.202Z,19.08
2022-11-14T09:14:26.510Z,18.85
2022-11-14T09:17:11.338Z,18.25
2022-11-14T09:19:56.383Z,17.58
2022-11-14T09:22:41.357Z,18.08
2022-11-14T09:25:26.477Z,16.95
2022-11-14T09:28:11.411Z,18.50
2022-11-14T09:31:18.045Z,17.05
2022-11-14T09:34:02.882Z,18.38
2022-11-14T09:36:47.995Z,17.77
2022-11-14T09:39:33.110Z,16.58
2022-11-14T09:42:30.390Z,17.88
2022-11-14T09:45:16.821Z,16.85
2022-11-14T09:48:10.473Z,16.40
2022-11-14T09:51:11.839Z,16.98
2022-11-14T09:54:21.258Z,16.77
2022-11-14T09:57:14.384Z,16.85
2022-11-14T09:59:59.929Z,16.85
2022-11-14T10:02:59.798Z,16.67
2022-11-14T10:06:13.580Z,16.55
2022-11-14T10:09:01.740Z,17.08
2022-11-14T10:11:59.810Z,17.50
2022-11-14T10:14:59.974Z,17.20
2022-11-14T10:18:00.287Z,16.40
2022-11-14T10:20:54.148Z,17.13
2022-11-14T10:23:57.633Z,15.90
2022-11-14T10:26:51.540Z,16.80
2022-11-14T10:29:52.245Z,17.25
2022-11-14T10:32:59.460Z,16.23
2022-11-14T10:35:54.248Z,16.38
2022-11-14T10:38:45.250Z,16.70
2022-11-14T10:44:39.721Z,17.10
2022-11-14T10:47:25.433Z,17.25
2022-11-14T10:50:19.091Z,17.25
2022-11-14T10:53:14.011Z,17.15
2022-11-14T10:56:04.562Z,17.38
2022-11-14T10:58:50.895Z,17.52
2022-11-14T11:01:42.027Z,17.50
2022-11-14T11:04:37.439Z,16.67
2022-11-14T11:07:44.718Z,15.88
2022-11-14T11:10:49.819Z,15.30
2022-11-14T11:13:37.485Z,14.45
2022-11-14T11:16:24.532Z,14.40
2022-11-14T11:19:35.744Z,11.98
2022-11-14T11:22:37.943Z,13.82
2022-11-14T11:25:28.415Z,12.75
2022-11-14T11:28:18.250Z,12.38
2022-11-14T11:31:08.351Z,11.70
2022-11-14T11:33:53.945Z,10.73
2022-11-14T11:36:41.867Z,8.73
2022-11-14T11:39:30.175Z,6.70
2022-11-14T11:42:18.401Z,5.72
2022-11-14T11:45:06.963Z,6.50
2022-11-14T11:47:58.691Z,3.50
2022-11-14T11:50:43.770Z,2.83
2022-11-14T11:53:33.146Z,3.60
2022-11-14T11:56:22.305Z,3.13
2022-11-14T11:59:25.766Z,2.72
2022-11-14T12:02:24.192Z,2.10
2022-11-14T12:05:15.116Z,2.25
2022-11-14T12:08:06.385Z,2.17
2022-11-14T12:10:52.271Z,2.10
2022-11-14T12:14:10.582Z,2.10
2022-11-14T12:17:23.051Z,2.03
2022-11-14T12:20:25.062Z,2.15
2022-11-14T12:23:18.684Z,2.30
2022-11-14T12:26:09.615Z,1.77
2022-11-14T12:29:15.302Z,2.03
2022-11-14T12:32:05.647Z,2.20
2022-11-14T12:34:50.701Z,2.78
2022-11-14T12:37:38.361Z,1.73
2022-11-14T12:40:25.913Z,2.13
2022-11-14T12:43:36.841Z,2.00
2022-11-14T12:46:22.422Z,2.22
2022-11-14T12:49:46.070Z,2.28
2022-11-14T12:52:50.483Z,2.25
2022-11-14T12:55:35.578Z,1.90
2022-11-14T12:58:31.502Z,1.85
2022-11-14T13:01:31.758Z,2.10
2022-11-14T13:04:43.117Z,2.20
2022-11-14T13:07:47.667Z,2.60
2022-11-14T13:10:40.317Z,2.08
2022-11-14T13:13:43.961Z,2.90
2022-11-14T13:16:50.218Z,2.20
2022-11-14T13:19:58.461Z,2.22
2022-11-14T13:22:44.509Z,1.90
2022-11-14T13:25:29.595Z,2.00
2022-11-14T13:28:50.579Z,1.70
2022-11-14T13:31:38.569Z,2.00
2022-11-14T13:34:43.061Z,2.30
2022-11-14T13:37:53.077Z,2.20
2022-11-14T13:41:03.136Z,2.30
2022-11-14T13:43:55.422Z,1.80
2022-11-14T13:47:10.797Z,1.90
2022-11-14T13:50:10.919Z,2.13
2022-11-14T13:52:56.433Z,2.03
2022-11-14T13:55:53.209Z,1.80
2022-11-14T13:58:54.080Z,1.90
2022-11-14T14:02:14.991Z,1.88
2022-11-14T14:05:20.719Z,2.03
2022-11-14T14:08:14.453Z,1.90
2022-11-14T14:11:24.683Z,2.40
2022-11-14T14:14:23.065Z,3.65
2022-11-14T14:17:29.975Z,4.80
2022-11-14T14:20:40.318Z,5.95
2022-11-14T14:23:28.372Z,6.38
2022-11-14T14:26:28.318Z,6.90
2022-11-14T14:29:33.310Z,6.20
2022-11-14T14:32:19.797Z,6.60
2022-11-14T14:35:23.559Z,6.63
2022-11-14T14:38:12.810Z,6.55
2022-11-14T14:40:58.220Z,6.88
2022-11-14T14:43:44.571Z,6.15
2022-11-14T14:46:31.339Z,6.30
2022-11-14T14:49:21.592Z,5.88
2022-11-14T14:52:39.032Z,5.75
2022-11-14T14:55:24.017Z,6.28
2022-11-14T14:58:37.394Z,5.80
2022-11-14T15:01:27.670Z,5.88
2022-11-14T15:04:14.898Z,5.60
2022-11-14T15:06:59.897Z,5.75
2022-11-14T15:10:00.027Z,6.00
2022-11-14T15:12:45.376Z,6.70
2022-11-14T15:15:30.955Z,3.83
2022-11-14T15:18:34.719Z,5.15
2022-11-14T15:21:29.696Z,5.93
2022-11-14T15:24:14.530Z,4.50
2022-11-14T15:27:04.005Z,4.03
2022-11-14T15:32:35.962Z,4.53
2022-11-14T15:35:25.506Z,4.00
2022-11-14T15:41:23.879Z,3.53
2022-11-14T15:44:34.196Z,3.50
2022-11-14T15:47:23.343Z,3.90
2022-11-14T15:50:11.301Z,3.40
2022-11-14T15:53:01.291Z,3.63
2022-11-14T15:55:46.342Z,3.63
2022-11-14T15:58:32.192Z,4.22
2022-11-14T16:01:23.054Z,4.10
2022-11-14T16:04:31.602Z,3.88
2022-11-14T16:07:17.381Z,3.77
2022-11-14T16:10:02.451Z,4.07
2022-11-14T16:12:52.413Z,3.60
2022-11-14T16:15:38.153Z,4.00
2022-11-14T16:18:23.310Z,3.75
2022-11-14T16:21:12.257Z,3.72
2022-11-14T16:23:57.876Z,3.92
2022-11-14T16:26:43.184Z,3.53
2022-11-14T16:29:29.158Z,3.47
2022-11-14T16:32:14.035Z,4.00
2022-11-14T16:34:59.259Z,3.53
2022-11-14T16:37:44.483Z,3.40
2022-11-14T16:40:29.628Z,3.22
2022-11-14T16:43:14.960Z,3.80
2022-11-14T16:46:07.199Z,3.60
2022-11-14T16:48:52.325Z,3.38
2022-11-14T16:51:53.470Z,3.58
2022-11-14T16:54:38.147Z,3.40
2022-11-14T16:57:24.229Z,3.00
2022-11-14T17:00:12.095Z,3.80
2022-11-14T17:02:57.600Z,3.55
2022-11-14T17:05:44.036Z,3.33
2022-11-14T17:08:29.046Z,3.30
2022-11-14T17:11:14.211Z,3.65
2022-11-14T17:13:59.013Z,3.50
2022-11-14T17:16:44.274Z,3.53
2022-11-14T17:19:30.247Z,3.53
2022-11-14T17:22:21.307Z,3.55
2022-11-14T17:25:06.357Z,3.45
2022-11-14T17:27:51.896Z,3.60
2022-11-14T17:30:43.482Z,3.35
2022-11-14T17:33:28.650Z,4.13
2022-11-14T17:36:14.064Z,3.58
2022-11-14T17:38:59.078Z,3.70
2022-11-14T17:41:44.337Z,4.10
2022-11-14T17:44:31.275Z,4.00
2022-11-14T17:47:16.437Z,3.60
2022-11-14T17:50:01.491Z,3.92
2022-11-14T17:52:46.586Z,4.32
2022-11-14T17:55:31.815Z,4.15
2022-11-14T17:58:16.819Z,4.30
2022-11-14T18:01:01.949Z,4.07
2022-11-14T18:03:46.813Z,3.83
2022-11-14T18:06:33.963Z,4.80
2022-11-14T18:09:19.013Z,4.22
2022-11-14T18:12:04.444Z,3.72
2022-11-14T18:14:49.411Z,3.78
2022-11-14T18:17:34.572Z,3.83
2022-11-14T18:20:19.419Z,3.60
2022-11-14T18:23:04.619Z,4.00
2022-11-14T18:25:49.751Z,3.83
2022-11-14T18:28:35.016Z,4.10
2022-11-14T18:31:20.298Z,4.13
2022-11-14T18:34:05.295Z,3.75
2022-11-14T18:36:50.161Z,3.60
2022-11-14T18:39:35.086Z,3.47
2022-11-14T18:42:20.406Z,3.75
2022-11-14T18:45:05.934Z,3.88
2022-11-14T18:47:50.810Z,3.20
2022-11-14T18:50:35.660Z,3.35
2022-11-14T18:53:20.999Z,3.30
2022-11-14T18:56:06.842Z,3.28
2022-11-14T18:58:53.717Z,3.40
2022-11-14T19:01:38.811Z,3.13
2022-11-14T19:04:23.941Z,3.15
2022-11-14T19:07:09.916Z,2.92
2022-11-14T19:09:55.091Z,3.17
2022-11-14T19:12:40.027Z,3.20
2022-11-14T19:15:25.198Z,2.85
2022-11-14T19:18:10.396Z,2.80
2022-11-14T19:20:58.556Z,3.42
2022-11-14T19:23:43.842Z,2.75
2022-11-14T19:26:29.403Z,2.92
2022-11-14T19:29:14.329Z,3.08
2022-11-14T19:31:59.111Z,2.70
2022-11-14T19:34:45.222Z,2.70
2022-11-14T19:37:30.339Z,2.92
2022-11-14T19:40:15.446Z,3.30
2022-11-14T19:43:03.895Z,3.00
2022-11-14T19:45:48.977Z,2.93
2022-11-14T19:48:34.736Z,3.40
2022-11-14T19:51:21.032Z,3.10
2022-11-14T19:54:06.126Z,3.20
2022-11-14T19:56:51.507Z,2.83
2022-11-14T19:59:36.391Z,2.65
2022-11-14T20:02:21.558Z,3.22
2022-11-14T20:05:07.782Z,2.70
2022-11-14T20:07:53.786Z,2.78
2022-11-14T20:10:47.948Z,2.97
2022-11-14T20:13:36.140Z,2.97
2022-11-14T20:16:29.303Z,2.85
2022-11-14T20:19:14.354Z,2.42
2022-11-14T20:21:59.191Z,2.75
2022-11-14T20:24:44.327Z,2.85
2022-11-14T20:27:29.242Z,2.90
2022-11-14T20:30:14.828Z,2.70
2022-11-14T20:32:59.734Z,3.15
2022-11-14T20:35:44.724Z,2.95
2022-11-14T20:38:31.043Z,2.58
2022-11-14T20:41:16.673Z,2.70
2022-11-14T20:44:03.373Z,2.40
2022-11-14T20:46:49.299Z,2.50
2022-11-14T20:49:34.256Z,2.38
2022-11-14T20:52:19.475Z,2.70
2022-11-14T20:55:11.476Z,2.30
2022-11-14T20:57:56.760Z,2.60
2022-11-14T21:00:41.584Z,2.80
2022-11-14T21:03:27.287Z,2.85
2022-11-14T21:06:13.222Z,2.80
2022-11-14T21:08:58.404Z,2.85
2022-11-14T21:11:43.187Z,2.67
2022-11-14T21:14:28.120Z,2.72
2022-11-14T21:17:13.283Z,3.20
2022-11-14T21:19:58.293Z,2.75
2022-11-14T21:22:43.487Z,2.65
2022-11-14T21:25:29.832Z,2.95
2022-11-14T21:28:15.255Z,2.63
2022-11-14T21:31:01.006Z,3.15
2022-11-14T21:33:47.506Z,2.95
2022-11-14T21:36:47.920Z,2.80
2022-11-14T21:39:39.190Z,3.03
2022-11-14T21:42:24.090Z,2.40
2022-11-14T21:45:09.971Z,2.72
2022-11-14T21:47:55.022Z,2.67
2022-11-14T21:50:40.013Z,2.28
2022-11-14T21:53:25.010Z,2.35
2022-11-14T21:56:19.763Z,2.60
2022-11-14T21:59:21.235Z,2.67
2022-11-14T22:02:25.468Z,2.33
2022-11-14T22:05:10.921Z,2.47
2022-11-14T22:07:56.002Z,2.75
2022-11-14T22:10:41.052Z,2.70
2022-11-14T22:13:26.192Z,2.90
2022-11-14T22:16:11.406Z,2.92
2022-11-14T22:19:01.975Z,3.22
2022-11-14T22:21:49.667Z,3.22
2022-11-14T22:24:34.607Z,3.05
2022-11-14T22:27:19.587Z,3.20
2022-11-14T22:30:04.707Z,3.13
2022-11-14T22:32:49.662Z,3.22
2022-11-14T22:35:35.311Z,3.15
2022-11-14T22:38:20.536Z,3.17
2022-11-14T22:41:08.143Z,3.17
2022-11-14T22:43:53.100Z,2.88
2022-11-14T22:46:38.963Z,3.20
2022-11-14T22:49:23.893Z,2.95
2022-11-14T22:52:08.954Z,3.33
2022-11-14T22:54:54.237Z,3.00
2022-11-14T22:57:39.088Z,2.90
2022-11-14T23:00:25.447Z,2.67
2022-11-14T23:03:10.597Z,3.03
2022-11-14T23:05:56.811Z,3.05
2022-11-14T23:08:42.340Z,2.60
2022-11-14T23:11:29.480Z,3.13
2022-11-14T23:14:14.425Z,2.63
2022-11-14T23:16:59.378Z,2.90
2022-11-14T23:19:44.539Z,2.90
2022-11-14T23:22:29.633Z,2.70
2022-11-14T23:25:15.042Z,2.60
2022-11-14T23:28:00.199Z,2.85
2022-11-14T23:30:45.158Z,2.65
2022-11-14T23:33:30.937Z,2.95
2022-11-14T23:36:16.798Z,2.90
2022-11-14T23:39:01.783Z,2.88
2022-11-14T23:41:47.057Z,2.88
2022-11-14T23:44:31.870Z,2.50
2022-11-14T23:47:17.113Z,3.08
2022-11-14T23:50:02.097Z,2.78
2022-11-14T23:52:47.042Z,3.30
2022-11-14T23:55:31.942Z,3.03
2022-11-14T23:58:17.171Z,2.85
